createdAt,value
2023-02-16T00:02:12.190Z,5.79
2023-02-16T00:04:38.817Z,5.65
2023-02-16T00:07:05.396Z,5.71
2023-02-16T00:09:31.948Z,5.70
2023-02-16T00:12:16.978Z,5.71
2023-02-16T00:14:43.556Z,5.66
2023-02-16T00:17:11.433Z,5.48
2023-02-16T00:19:42.696Z,5.64
2023-02-16T00:22:11.513Z,5.58
2023-02-16T00:24:38.120Z,5.61
2023-02-16T00:27:13.091Z,5.61
2023-02-16T00:29:44.790Z,5.58
2023-02-16T00:32:13.721Z,5.57
2023-02-16T00:34:43.563Z,5.37
2023-02-16T00:37:12.867Z,5.55
2023-02-16T00:39:41.131Z,5.53
2023-02-16T00:42:20.483Z,5.35
2023-02-16T00:44:49.382Z,5.43
2023-02-16T00:47:21.987Z,5.38
2023-02-16T00:49:51.610Z,5.37
2023-02-16T00:52:42.707Z,5.36
2023-02-16T00:55:12.934Z,5.35
2023-02-16T00:57:44.255Z,5.38
2023-02-16T01:00:13.772Z,5.37
2023-02-16T01:02:44.345Z,5.36
2023-02-16T01:05:11.452Z,5.16
2023-02-16T01:07:56.793Z,5.36
2023-02-16T01:10:45.896Z,4.42
2023-02-16T01:13:12.911Z,5.31
2023-02-16T01:15:45.407Z,5.25
2023-02-16T01:18:16.980Z,5.30
2023-02-16T01:20:44.631Z,5.31
2023-02-16T01:23:11.620Z,5.31
2023-02-16T01:25:38.570Z,5.30
2023-02-16T01:28:18.699Z,5.35
2023-02-16T01:30:45.293Z,5.34
2023-02-16T01:33:11.902Z,5.11
2023-02-16T01:35:38.817Z,5.33
2023-02-16T01:38:05.440Z,5.33
2023-02-16T01:40:37.428Z,5.34
2023-02-16T01:43:18.957Z,5.33
2023-02-16T01:45:51.229Z,5.28
2023-02-16T01:48:30.225Z,5.30
2023-02-16T01:51:22.099Z,5.27
2023-02-16T01:54:07.508Z,5.26
2023-02-16T01:56:52.716Z,5.23
2023-02-16T01:59:41.594Z,5.20
2023-02-16T02:02:26.108Z,5.17
2023-02-16T02:05:22.192Z,5.16
2023-02-16T02:07:58.393Z,5.11
2023-02-16T02:10:54.364Z,5.08
2023-02-16T02:13:58.387Z,4.40
2023-02-16T02:16:27.802Z,5.04
2023-02-16T02:18:54.634Z,5.02
2023-02-16T02:22:04.907Z,5.01
2023-02-16T02:24:58.833Z,4.98
2023-02-16T02:27:37.746Z,5.00
2023-02-16T02:30:13.341Z,5.07
2023-02-16T02:32:50.066Z,5.07
2023-02-16T02:35:41.024Z,5.08
2023-02-16T02:38:25.570Z,5.10
2023-02-16T02:41:49.253Z,5.19
2023-02-16T02:44:20.208Z,5.27
2023-02-16T02:46:47.278Z,5.30
2023-02-16T02:49:13.948Z,5.31
2023-02-16T02:51:42.674Z,5.17
2023-02-16T02:54:32.870Z,5.12
2023-02-16T02:57:33.097Z,5.12
2023-02-16T03:00:29.662Z,5.17
2023-02-16T03:03:03.703Z,4.95
2023-02-16T03:05:36.270Z,5.00
2023-02-16T03:08:14.126Z,5.10
2023-02-16T03:11:06.900Z,5.06
2023-02-16T03:13:49.281Z,4.74
2023-02-16T03:16:28.019Z,4.87
2023-02-16T03:19:17.228Z,4.98
2023-02-16T03:22:03.023Z,4.95
2023-02-16T03:24:51.426Z,4.91
2023-02-16T03:27:42.665Z,4.75
2023-02-16T03:30:11.141Z,4.71
2023-02-16T03:32:38.890Z,4.70
2023-02-16T03:35:06.951Z,4.79
2023-02-16T03:37:33.823Z,4.76
2023-02-16T03:40:21.133Z,4.65
2023-02-16T03:42:51.990Z,4.76
2023-02-16T03:45:23.397Z,4.70
2023-02-16T03:47:52.735Z,4.70
2023-02-16T03:50:19.329Z,4.82
2023-02-16T03:52:46.026Z,4.03
2023-02-16T03:55:15.113Z,4.89
2023-02-16T03:57:41.639Z,4.92
2023-02-16T04:00:08.918Z,4.94
2023-02-16T04:02:40.219Z,4.89
2023-02-16T04:05:07.048Z,5.04
2023-02-16T04:07:33.630Z,4.92
2023-02-16T04:10:00.180Z,4.88
2023-02-16T04:12:38.832Z,5.05
2023-02-16T04:15:08.991Z,5.09
2023-02-16T04:17:35.751Z,4.99
2023-02-16T04:20:03.311Z,5.14
2023-02-16T04:22:32.168Z,5.22
2023-02-16T04:24:58.701Z,5.21
2023-02-16T04:27:25.423Z,5.31
2023-02-16T04:29:52.103Z,5.38
2023-02-16T04:32:20.968Z,5.35
2023-02-16T04:34:49.653Z,5.27
2023-02-16T04:37:16.380Z,5.44
2023-02-16T04:39:45.144Z,5.26
2023-02-16T04:42:11.747Z,5.48
2023-02-16T04:44:40.948Z,5.33
2023-02-16T04:47:07.453Z,5.40
2023-02-16T04:49:36.359Z,5.35
2023-02-16T04:52:04.095Z,5.41
2023-02-16T04:54:31.935Z,5.39
2023-02-16T04:56:58.808Z,5.56
2023-02-16T04:59:25.984Z,5.57
2023-02-16T05:01:55.050Z,5.56
2023-02-16T05:04:21.827Z,5.58
2023-02-16T05:06:51.103Z,5.61
2023-02-16T05:09:17.713Z,5.61
2023-02-16T05:12:03.067Z,5.60
2023-02-16T05:14:43.334Z,5.65
2023-02-16T05:17:11.076Z,5.64
2023-02-16T05:19:41.456Z,5.65
2023-02-16T05:22:08.458Z,5.66
2023-02-16T05:24:36.060Z,5.48
2023-02-16T05:27:04.597Z,5.62
2023-02-16T05:29:31.445Z,5.71
2023-02-16T05:31:58.474Z,5.73
2023-02-16T05:34:25.593Z,5.74
2023-02-16T05:36:52.734Z,5.61
2023-02-16T05:39:19.516Z,5.71
2023-02-16T05:41:46.165Z,5.79
2023-02-16T05:44:12.952Z,5.81
2023-02-16T05:46:43.150Z,5.83
2023-02-16T05:49:10.371Z,5.81
2023-02-16T05:51:37.685Z,5.85
2023-02-16T05:54:05.102Z,5.85
2023-02-16T05:56:34.274Z,5.86
2023-02-16T05:59:03.611Z,5.88
2023-02-16T06:01:30.181Z,5.85
2023-02-16T06:03:56.887Z,5.75
2023-02-16T06:06:23.520Z,5.90
2023-02-16T06:08:50.133Z,5.77
2023-02-16T06:11:39.537Z,5.76
2023-02-16T06:14:15.711Z,5.93
2023-02-16T06:16:47.324Z,5.92
2023-02-16T06:19:16.342Z,5.93
2023-02-16T06:21:43.202Z,5.95
2023-02-16T06:24:12.104Z,5.75
2023-02-16T06:26:38.990Z,5.94
2023-02-16T06:29:05.806Z,5.82
2023-02-16T06:31:35.825Z,5.93
2023-02-16T06:34:03.797Z,5.91
2023-02-16T06:36:30.780Z,5.96
2023-02-16T06:38:57.464Z,5.93
2023-02-16T06:41:35.525Z,5.89
2023-02-16T06:44:07.737Z,6.00
2023-02-16T06:46:34.882Z,6.00
2023-02-16T06:49:01.849Z,6.04
2023-02-16T06:51:29.127Z,6.06
2023-02-16T06:53:55.744Z,6.08
2023-02-16T06:56:24.679Z,5.98
2023-02-16T06:58:51.797Z,6.09
2023-02-16T07:01:23.044Z,5.94
2023-02-16T07:03:53.538Z,5.91
2023-02-16T07:06:20.825Z,6.11
2023-02-16T07:08:47.649Z,5.91
2023-02-16T07:11:14.883Z,6.06
2023-02-16T07:13:41.557Z,6.22
2023-02-16T07:16:08.190Z,6.13
2023-02-16T07:18:35.242Z,6.29
2023-02-16T07:21:02.195Z,6.33
2023-02-16T07:23:29.091Z,6.23
2023-02-16T07:25:55.684Z,6.40
2023-02-16T07:28:22.327Z,6.46
2023-02-16T07:30:48.934Z,6.52
2023-02-16T07:33:15.992Z,6.59
2023-02-16T07:35:43.616Z,6.61
2023-02-16T07:38:10.453Z,6.66
2023-02-16T07:40:37.048Z,6.70
2023-02-16T07:43:05.749Z,6.65
2023-02-16T07:45:33.056Z,6.77
2023-02-16T07:48:00.485Z,6.80
2023-02-16T07:50:27.577Z,6.84
2023-02-16T07:52:54.195Z,6.91
2023-02-16T07:55:20.785Z,6.93
2023-02-16T07:57:49.507Z,6.89
2023-02-16T08:00:18.916Z,7.03
2023-02-16T08:02:45.594Z,7.04
2023-02-16T08:05:12.157Z,6.99
2023-02-16T08:07:41.927Z,6.99
2023-02-16T08:10:13.022Z,7.09
2023-02-16T08:12:41.724Z,7.08
2023-02-16T08:15:09.615Z,7.12
2023-02-16T08:17:36.523Z,7.14
2023-02-16T08:20:04.940Z,7.14
2023-02-16T08:22:32.846Z,7.13
2023-02-16T08:25:01.915Z,7.19
2023-02-16T08:27:28.517Z,7.20
2023-02-16T08:29:55.461Z,7.19
2023-02-16T08:32:22.247Z,7.24
2023-02-16T08:34:49.064Z,7.29
2023-02-16T08:37:15.799Z,7.37
2023-02-16T08:39:42.850Z,7.38
2023-02-16T08:42:13.566Z,7.44
2023-02-16T08:44:42.446Z,7.60
2023-02-16T08:47:10.974Z,7.63
2023-02-16T08:49:39.414Z,7.66
2023-02-16T08:52:06.443Z,7.67
2023-02-16T08:54:33.508Z,7.58
2023-02-16T08:57:03.670Z,7.63
2023-02-16T08:59:31.361Z,7.70
2023-02-16T09:01:59.214Z,7.72
2023-02-16T09:04:28.989Z,7.71
2023-02-16T09:06:56.555Z,7.75
2023-02-16T09:09:23.521Z,7.72
2023-02-16T09:11:50.413Z,7.80
2023-02-16T09:14:21.661Z,7.83
2023-02-16T09:16:49.010Z,7.77
2023-02-16T09:19:18.406Z,7.75
2023-02-16T09:21:47.116Z,7.88
2023-02-16T09:24:13.964Z,7.75
2023-02-16T09:26:42.950Z,7.79
2023-02-16T09:29:12.475Z,7.81
2023-02-16T09:31:40.027Z,6.61
2023-02-16T09:34:27.937Z,7.95
2023-02-16T09:36:54.855Z,8.01
2023-02-16T09:39:21.787Z,8.03
2023-02-16T09:42:06.363Z,8.06
2023-02-16T09:44:45.182Z,8.09
2023-02-16T09:47:22.521Z,8.09
2023-02-16T09:49:50.269Z,8.10
2023-02-16T09:52:16.893Z,8.10
2023-02-16T09:54:51.341Z,7.97
2023-02-16T09:57:24.836Z,8.13
2023-02-16T10:00:13.157Z,8.11
2023-02-16T10:02:49.178Z,8.13
2023-02-16T10:05:52.030Z,8.12
2023-02-16T10:08:34.444Z,8.03
2023-02-16T10:11:38.256Z,8.14
2023-02-16T10:14:30.874Z,8.13
2023-02-16T10:17:18.323Z,8.08
2023-02-16T10:19:56.734Z,7.94
2023-02-16T10:22:44.745Z,8.10
2023-02-16T10:25:17.080Z,8.09
2023-02-16T10:27:47.954Z,8.13
2023-02-16T10:30:16.651Z,8.09
2023-02-16T10:32:56.462Z,7.97
2023-02-16T10:35:30.230Z,8.09
2023-02-16T10:38:21.265Z,8.07
2023-02-16T10:41:04.350Z,8.14
2023-02-16T10:43:39.581Z,8.13
2023-02-16T10:46:13.612Z,8.03
2023-02-16T10:48:40.217Z,8.17
2023-02-16T10:51:09.414Z,8.09
2023-02-16T10:53:59.427Z,8.31
2023-02-16T10:56:44.717Z,8.35
2023-02-16T10:59:18.816Z,7.86
2023-02-16T11:01:59.725Z,8.29
2023-02-16T11:04:33.290Z,8.27
2023-02-16T11:07:24.083Z,7.83
2023-02-16T11:09:53.933Z,8.28
2023-02-16T11:12:33.000Z,8.30
2023-02-16T11:15:18.869Z,8.38
2023-02-16T11:17:48.432Z,8.47
2023-02-16T11:20:45.079Z,8.55
2023-02-16T11:23:17.780Z,8.73
2023-02-16T11:25:57.401Z,8.84
2023-02-16T11:28:48.013Z,8.88
2023-02-16T11:31:32.958Z,8.96
2023-02-16T11:34:06.144Z,9.06
2023-02-16T11:36:37.682Z,9.21
2023-02-16T11:39:25.578Z,9.31
2023-02-16T11:42:01.268Z,9.25
2023-02-16T11:44:33.315Z,9.45
2023-02-16T11:47:12.613Z,9.50
2023-02-16T11:49:41.889Z,9.60
2023-02-16T11:52:23.932Z,9.61
2023-02-16T11:54:58.272Z,9.78
2023-02-16T11:57:28.522Z,9.88
2023-02-16T12:00:01.944Z,9.26
2023-02-16T12:02:50.385Z,10.07
2023-02-16T12:05:35.971Z,10.16
2023-02-16T12:08:25.643Z,10.28
2023-02-16T12:11:30.729Z,10.37
2023-02-16T12:14:29.308Z,10.42
2023-02-16T12:17:13.156Z,10.61
2023-02-16T12:19:41.836Z,10.69
2023-02-16T12:22:16.667Z,10.79
2023-02-16T12:24:56.197Z,10.70
2023-02-16T12:27:39.306Z,10.28
2023-02-16T12:30:12.091Z,10.92
2023-02-16T12:33:26.327Z,11.00
2023-02-16T12:36:21.834Z,11.19
2023-02-16T12:38:59.884Z,11.34
2023-02-16T12:42:12.077Z,11.45
2023-02-16T12:44:55.407Z,11.46
2023-02-16T12:47:54.663Z,11.49
2023-02-16T12:50:31.149Z,11.50
2023-02-16T12:53:27.661Z,11.47
2023-02-16T12:56:02.379Z,11.47
2023-02-16T12:58:36.541Z,11.65
2023-02-16T13:01:12.261Z,11.59
2023-02-16T13:03:40.541Z,11.75
2023-02-16T13:06:22.430Z,10.39
2023-02-16T13:09:20.068Z,11.87
2023-02-16T13:12:02.536Z,11.83
2023-02-16T13:14:40.159Z,12.25
2023-02-16T13:17:21.405Z,12.33
2023-02-16T13:19:52.037Z,12.32
2023-02-16T13:22:51.686Z,12.29
2023-02-16T13:25:43.104Z,12.30
2023-02-16T13:28:09.793Z,12.30
2023-02-16T13:30:59.805Z,12.30
2023-02-16T13:33:58.704Z,12.29
2023-02-16T13:36:41.187Z,12.32
2023-02-16T13:39:18.956Z,12.28
2023-02-16T13:41:57.823Z,12.41
2023-02-16T13:44:34.326Z,12.43
2023-02-16T13:47:05.073Z,12.24
2023-02-16T13:49:36.273Z,12.60
2023-02-16T13:52:08.470Z,12.65
2023-02-16T13:54:39.987Z,12.54
2023-02-16T13:57:11.908Z,12.47
2023-02-16T13:59:40.982Z,12.41
2023-02-16T14:02:15.086Z,12.26
2023-02-16T14:04:50.620Z,12.33
2023-02-16T14:07:31.286Z,12.35
2023-02-16T14:10:00.472Z,12.37
2023-02-16T14:12:36.170Z,12.29
2023-02-16T14:15:08.530Z,12.36
2023-02-16T14:17:35.880Z,12.26
2023-02-16T14:20:15.802Z,12.37
2023-02-16T14:22:57.581Z,11.74
2023-02-16T14:25:24.175Z,12.41
2023-02-16T14:27:56.448Z,12.43
2023-02-16T14:30:32.430Z,12.43
2023-02-16T14:33:17.174Z,12.46
2023-02-16T14:35:58.378Z,12.32
2023-02-16T14:38:51.234Z,12.43
2023-02-16T14:41:23.901Z,12.43
2023-02-16T14:43:56.256Z,12.34
2023-02-16T14:46:44.312Z,12.44
2023-02-16T14:49:45.329Z,12.47
2023-02-16T14:52:37.200Z,12.41
2023-02-16T14:55:46.715Z,12.40
2023-02-16T14:58:34.715Z,12.50
2023-02-16T15:01:12.651Z,12.54
2023-02-16T15:03:45.514Z,12.55
2023-02-16T15:06:27.920Z,12.49
2023-02-16T15:08:59.289Z,12.59
2023-02-16T15:11:57.615Z,12.55
2023-02-16T15:14:29.567Z,12.59
2023-02-16T15:16:58.977Z,12.58
2023-02-16T15:19:31.145Z,12.21
2023-02-16T15:22:22.203Z,12.59
2023-02-16T15:24:56.210Z,12.55
2023-02-16T15:27:23.735Z,12.55
2023-02-16T15:30:23.296Z,12.59
2023-02-16T15:32:56.399Z,12.63
2023-02-16T15:35:27.565Z,12.54
2023-02-16T15:38:05.108Z,12.42
2023-02-16T15:40:35.308Z,12.29
2023-02-16T15:43:30.874Z,12.37
2023-02-16T15:45:58.928Z,12.38
2023-02-16T15:48:29.310Z,12.36
2023-02-16T15:51:15.594Z,12.36
2023-02-16T15:53:55.963Z,12.27
2023-02-16T15:56:32.730Z,12.25
2023-02-16T15:59:20.909Z,12.17
2023-02-16T16:01:47.942Z,12.01
2023-02-16T16:04:25.259Z,12.14
2023-02-16T16:06:54.679Z,12.02
2023-02-16T16:09:30.890Z,11.69
2023-02-16T16:12:00.237Z,11.98
2023-02-16T16:14:28.414Z,11.93
2023-02-16T16:16:58.065Z,11.86
2023-02-16T16:19:38.334Z,11.79
2023-02-16T16:22:30.283Z,11.60
2023-02-16T16:24:56.921Z,11.55
2023-02-16T16:27:38.350Z,11.44
2023-02-16T16:30:45.408Z,11.47
2023-02-16T16:33:14.048Z,11.41
2023-02-16T16:35:52.076Z,11.27
2023-02-16T16:38:26.589Z,11.31
2023-02-16T16:40:59.840Z,11.11
2023-02-16T16:43:37.668Z,11.22
2023-02-16T16:46:07.627Z,11.22
2023-02-16T16:48:37.246Z,11.07
2023-02-16T16:51:21.153Z,11.00
2023-02-16T16:53:50.854Z,11.07
2023-02-16T16:56:18.773Z,10.90
2023-02-16T16:58:52.422Z,11.00
2023-02-16T17:01:20.491Z,10.79
2023-02-16T17:03:47.243Z,10.97
2023-02-16T17:06:17.712Z,10.91
2023-02-16T17:08:45.325Z,10.85
2023-02-16T17:11:24.221Z,10.91
2023-02-16T17:13:52.071Z,10.89
2023-02-16T17:16:28.126Z,10.41
2023-02-16T17:18:55.002Z,10.88
2023-02-16T17:21:21.742Z,10.87
2023-02-16T17:23:53.200Z,10.71
2023-02-16T17:26:20.662Z,10.86
2023-02-16T17:28:47.349Z,10.84
2023-02-16T17:31:13.995Z,10.68
2023-02-16T17:33:44.890Z,10.82
2023-02-16T17:36:14.502Z,10.68
2023-02-16T17:38:43.279Z,10.77
2023-02-16T17:41:28.360Z,10.71
2023-02-16T17:43:57.925Z,10.69
2023-02-16T17:46:25.562Z,10.61
2023-02-16T17:48:55.168Z,10.69
2023-02-16T17:51:24.177Z,10.96
2023-02-16T17:53:51.244Z,11.20
2023-02-16T17:56:20.580Z,11.21
2023-02-16T17:58:47.301Z,11.01
2023-02-16T18:01:15.732Z,10.98
2023-02-16T18:03:44.865Z,10.88
2023-02-16T18:06:17.361Z,10.89
2023-02-16T18:08:44.524Z,10.89
2023-02-16T18:11:13.115Z,10.92
2023-02-16T18:13:39.976Z,10.92
2023-02-16T18:16:07.917Z,10.89
2023-02-16T18:18:36.878Z,10.83
2023-02-16T18:21:03.697Z,10.83
2023-02-16T18:23:30.656Z,10.79
2023-02-16T18:26:00.108Z,10.79
2023-02-16T18:28:30.778Z,10.50
2023-02-16T18:31:00.258Z,10.79
2023-02-16T18:33:27.691Z,10.50
2023-02-16T18:36:00.234Z,10.29
2023-02-16T18:38:27.181Z,10.73
2023-02-16T18:40:55.320Z,10.73
2023-02-16T18:43:22.938Z,10.73
2023-02-16T18:45:53.211Z,10.72
2023-02-16T18:48:22.889Z,10.59
2023-02-16T18:50:51.853Z,10.64
2023-02-16T18:53:18.432Z,10.67
2023-02-16T18:55:45.054Z,9.81
2023-02-16T18:58:15.615Z,10.64
2023-02-16T19:00:42.187Z,10.55
2023-02-16T19:03:09.241Z,10.28
2023-02-16T19:05:38.370Z,10.52
2023-02-16T19:08:06.159Z,10.61
2023-02-16T19:10:35.100Z,10.59
2023-02-16T19:13:05.189Z,10.43
2023-02-16T19:15:33.265Z,10.57
2023-02-16T19:18:02.374Z,10.57
2023-02-16T19:20:31.748Z,10.56
2023-02-16T19:22:58.312Z,10.55
2023-02-16T19:25:25.181Z,10.56
2023-02-16T19:27:51.824Z,10.55
2023-02-16T19:30:22.042Z,10.56
2023-02-16T19:32:50.855Z,10.56
2023-02-16T19:35:19.715Z,10.57
2023-02-16T19:37:46.854Z,10.53
2023-02-16T19:40:13.890Z,10.56
2023-02-16T19:42:40.572Z,10.55
2023-02-16T19:45:07.570Z,10.54
2023-02-16T19:47:34.329Z,10.21
2023-02-16T19:50:03.968Z,10.55
2023-02-16T19:52:30.639Z,10.52
2023-02-16T19:54:57.200Z,10.55
2023-02-16T19:57:23.800Z,10.55
2023-02-16T19:59:52.585Z,10.47
2023-02-16T20:02:19.291Z,10.51
2023-02-16T20:04:45.934Z,10.53
2023-02-16T20:07:12.630Z,10.51
2023-02-16T20:09:41.738Z,10.52
2023-02-16T20:12:08.769Z,10.53
2023-02-16T20:14:35.592Z,10.48
2023-02-16T20:17:04.709Z,10.51
2023-02-16T20:19:31.275Z,10.44
2023-02-16T20:22:00.255Z,10.50
2023-02-16T20:24:29.426Z,10.39
2023-02-16T20:26:56.014Z,10.33
2023-02-16T20:29:22.765Z,10.47
2023-02-16T20:31:55.988Z,10.50
2023-02-16T20:34:28.794Z,10.48
2023-02-16T20:36:58.554Z,10.46
2023-02-16T20:39:25.400Z,10.42
2023-02-16T20:41:54.250Z,10.49
2023-02-16T20:44:22.559Z,10.43
2023-02-16T20:46:49.521Z,10.42
2023-02-16T20:49:18.439Z,10.54
2023-02-16T20:51:45.057Z,10.53
2023-02-16T20:54:12.560Z,9.92
2023-02-16T20:56:39.331Z,10.53
2023-02-16T20:59:05.977Z,10.54
2023-02-16T21:01:39.635Z,10.57
2023-02-16T21:04:08.210Z,10.56
2023-02-16T21:06:36.018Z,9.83
2023-02-16T21:09:04.115Z,10.44
2023-02-16T21:11:30.880Z,10.58
2023-02-16T21:13:58.348Z,10.65
2023-02-16T21:16:25.467Z,10.61
2023-02-16T21:18:52.171Z,10.57
2023-02-16T21:21:18.762Z,10.53
2023-02-16T21:23:52.925Z,10.69
2023-02-16T21:26:21.682Z,10.69
2023-02-16T21:28:48.722Z,10.64
2023-02-16T21:31:20.022Z,10.70
2023-02-16T21:33:47.467Z,10.66
2023-02-16T21:36:21.448Z,10.73
2023-02-16T21:38:48.919Z,10.73
2023-02-16T21:41:25.492Z,10.72
2023-02-16T21:44:03.273Z,10.35
2023-02-16T21:46:33.256Z,10.74
2023-02-16T21:49:00.264Z,10.74
2023-02-16T21:51:29.814Z,10.75
2023-02-16T21:53:57.843Z,10.76
2023-02-16T21:56:33.662Z,10.76
2023-02-16T21:59:00.870Z,10.16
2023-02-16T22:01:31.851Z,10.74
2023-02-16T22:04:00.459Z,10.76
2023-02-16T22:06:33.034Z,10.76
2023-02-16T22:09:00.629Z,10.60
2023-02-16T22:11:27.469Z,10.28
2023-02-16T22:13:58.299Z,10.67
2023-02-16T22:16:26.427Z,9.98
2023-02-16T22:18:57.718Z,10.63
2023-02-16T22:21:24.810Z,10.79
2023-02-16T22:23:51.368Z,10.78
2023-02-16T22:26:36.188Z,10.61
2023-02-16T22:29:06.796Z,10.71
2023-02-16T22:31:34.049Z,10.76
2023-02-16T22:34:03.074Z,10.76
2023-02-16T22:36:32.018Z,10.73
2023-02-16T22:38:58.601Z,10.76
2023-02-16T22:41:28.276Z,10.72
2023-02-16T22:43:56.057Z,10.79
2023-02-16T22:46:24.187Z,10.79
2023-02-16T22:48:52.140Z,10.78
2023-02-16T22:51:20.996Z,10.79
2023-02-16T22:53:49.881Z,10.71
2023-02-16T22:56:18.238Z,10.78
2023-02-16T22:58:45.922Z,10.81
2023-02-16T23:01:15.493Z,10.79
2023-02-16T23:03:44.595Z,10.79
2023-02-16T23:06:17.044Z,10.39
2023-02-16T23:08:50.852Z,10.59
2023-02-16T23:11:17.459Z,10.79
2023-02-16T23:13:44.191Z,10.79
2023-02-16T23:16:17.378Z,10.79
2023-02-16T23:18:44.392Z,10.04
2023-02-16T23:21:21.257Z,10.80
2023-02-16T23:23:49.214Z,10.80
2023-02-16T23:26:16.708Z,10.69
2023-02-16T23:28:49.257Z,10.78
2023-02-16T23:31:16.077Z,10.73
2023-02-16T23:33:47.374Z,10.72
2023-02-16T23:36:14.267Z,10.84
2023-02-16T23:38:40.944Z,10.84
2023-02-16T23:41:10.946Z,10.76
2023-02-16T23:43:43.143Z,10.66
2023-02-16T23:46:10.990Z,10.83
2023-02-16T23:48:38.522Z,10.80
2023-02-16T23:51:05.436Z,10.79
2023-02-16T23:53:32.399Z,10.30
2023-02-16T23:56:00.936Z,10.71
2023-02-16T23:58:33.319Z,10.83
